sensor_id;sensor_type;location;lat;lon;timestamp;temperature;humidity
569;DHT22;269;48.884;9.192;2023-06-19T00:00:45;24.30;69.80
569;DHT22;269;48.884;9.192;2023-06-19T00:03:13;24.30;69.90
569;DHT22;269;48.884;9.192;2023-06-19T00:05:40;24.10;70.00
569;DHT22;269;48.884;9.192;2023-06-19T00:08:07;24.00;70.00
569;DHT22;269;48.884;9.192;2023-06-19T00:10:34;24.00;70.30
569;DHT22;269;48.884;9.192;2023-06-19T00:13:01;23.90;70.50
569;DHT22;269;48.884;9.192;2023-06-19T00:15:29;23.80;70.70
569;DHT22;269;48.884;9.192;2023-06-19T00:17:56;23.80;71.20
569;DHT22;269;48.884;9.192;2023-06-19T00:20:25;23.80;71.60
569;DHT22;269;48.884;9.192;2023-06-19T00:22:52;23.80;71.90
569;DHT22;269;48.884;9.192;2023-06-19T00:25:19;23.80;71.90
569;DHT22;269;48.884;9.192;2023-06-19T00:27:47;23.90;72.20
569;DHT22;269;48.884;9.192;2023-06-19T00:30:14;24.00;72.60
569;DHT22;269;48.884;9.192;2023-06-19T00:32:41;24.00;72.60
569;DHT22;269;48.884;9.192;2023-06-19T00:35:16;24.00;72.60
569;DHT22;269;48.884;9.192;2023-06-19T00:37:45;24.00;72.80
569;DHT22;269;48.884;9.192;2023-06-19T00:40:26;24.00;72.80
569;DHT22;269;48.884;9.192;2023-06-19T00:42:54;24.10;72.80
569;DHT22;269;48.884;9.192;2023-06-19T00:45:21;24.10;73.00
569;DHT22;269;48.884;9.192;2023-06-19T00:47:49;24.10;73.00
569;DHT22;269;48.884;9.192;2023-06-19T00:50:17;24.10;73.50
569;DHT22;269;48.884;9.192;2023-06-19T00:52:45;24.10;73.40
569;DHT22;269;48.884;9.192;2023-06-19T00:55:13;24.20;73.70
569;DHT22;269;48.884;9.192;2023-06-19T00:57:42;24.10;73.30
569;DHT22;269;48.884;9.192;2023-06-19T01:00:10;24.20;73.50
569;DHT22;269;48.884;9.192;2023-06-19T01:02:38;24.20;74.60
569;DHT22;269;48.884;9.192;2023-06-19T01:05:06;24.20;73.80
569;DHT22;269;48.884;9.192;2023-06-19T01:07:39;24.20;74.40
569;DHT22;269;48.884;9.192;2023-06-19T01:10:15;24.20;73.80
569;DHT22;269;48.884;9.192;2023-06-19T01:12:48;24.20;74.40
569;DHT22;269;48.884;9.192;2023-06-19T01:15:18;24.10;74.60
569;DHT22;269;48.884;9.192;2023-06-19T01:17:47;24.10;75.00
569;DHT22;269;48.884;9.192;2023-06-19T01:20:15;24.00;75.10
569;DHT22;269;48.884;9.192;2023-06-19T01:22:44;23.90;75.40
569;DHT22;269;48.884;9.192;2023-06-19T01:25:11;23.80;75.60
569;DHT22;269;48.884;9.192;2023-06-19T01:27:40;23.80;76.60
569;DHT22;269;48.884;9.192;2023-06-19T01:30:09;23.70;77.00
569;DHT22;269;48.884;9.192;2023-06-19T01:32:44;23.60;77.60
569;DHT22;269;48.884;9.192;2023-06-19T01:35:15;23.60;78.20
569;DHT22;269;48.884;9.192;2023-06-19T01:37:46;23.50;78.50
569;DHT22;269;48.884;9.192;2023-06-19T01:40:15;23.50;78.90
569;DHT22;269;48.884;9.192;2023-06-19T01:42:43;23.40;79.30
569;DHT22;269;48.884;9.192;2023-06-19T01:45:10;23.50;79.80
569;DHT22;269;48.884;9.192;2023-06-19T01:47:38;23.50;80.50
569;DHT22;269;48.884;9.192;2023-06-19T01:50:06;23.50;80.90
569;DHT22;269;48.884;9.192;2023-06-19T01:52:33;23.40;81.50
569;DHT22;269;48.884;9.192;2023-06-19T01:55:01;23.40;81.90
569;DHT22;269;48.884;9.192;2023-06-19T01:57:29;23.40;82.60
569;DHT22;269;48.884;9.192;2023-06-19T01:59:56;23.40;82.90
569;DHT22;269;48.884;9.192;2023-06-19T02:02:23;23.30;83.50
569;DHT22;269;48.884;9.192;2023-06-19T02:04:50;23.30;84.10
569;DHT22;269;48.884;9.192;2023-06-19T02:07:17;23.20;85.50
569;DHT22;269;48.884;9.192;2023-06-19T02:09:44;23.10;86.80
569;DHT22;269;48.884;9.192;2023-06-19T02:12:13;23.00;88.10
569;DHT22;269;48.884;9.192;2023-06-19T02:14:40;23.00;89.10
569;DHT22;269;48.884;9.192;2023-06-19T02:17:07;22.90;89.90
569;DHT22;269;48.884;9.192;2023-06-19T02:19:34;22.90;90.30
569;DHT22;269;48.884;9.192;2023-06-19T02:22:01;22.90;90.90
569;DHT22;269;48.884;9.192;2023-06-19T02:24:29;22.90;91.30
569;DHT22;269;48.884;9.192;2023-06-19T02:26:56;22.90;91.80
569;DHT22;269;48.884;9.192;2023-06-19T02:29:25;22.90;92.30
569;DHT22;269;48.884;9.192;2023-06-19T02:31:52;22.80;92.70
569;DHT22;269;48.884;9.192;2023-06-19T02:34:19;22.80;93.10
569;DHT22;269;48.884;9.192;2023-06-19T02:36:46;22.80;93.70
569;DHT22;269;48.884;9.192;2023-06-19T02:39:13;22.80;94.10
569;DHT22;269;48.884;9.192;2023-06-19T02:41:41;22.80;94.50
569;DHT22;269;48.884;9.192;2023-06-19T02:44:11;22.70;95.10
569;DHT22;269;48.884;9.192;2023-06-19T02:46:39;22.70;95.70
569;DHT22;269;48.884;9.192;2023-06-19T02:49:07;22.70;96.50
569;DHT22;269;48.884;9.192;2023-06-19T02:51:33;22.60;96.90
569;DHT22;269;48.884;9.192;2023-06-19T02:54:01;22.60;97.10
569;DHT22;269;48.884;9.192;2023-06-19T02:56:27;22.60;97.30
569;DHT22;269;48.884;9.192;2023-06-19T02:58:55;22.60;97.60
569;DHT22;269;48.884;9.192;2023-06-19T03:01:22;22.50;98.00
569;DHT22;269;48.884;9.192;2023-06-19T03:03:51;22.50;98.50
569;DHT22;269;48.884;9.192;2023-06-19T03:06:18;22.50;99.10
569;DHT22;269;48.884;9.192;2023-06-19T03:08:46;22.50;99.40
569;DHT22;269;48.884;9.192;2023-06-19T03:11:13;22.50;99.40
569;DHT22;269;48.884;9.192;2023-06-19T03:13:44;22.50;99.30
569;DHT22;269;48.884;9.192;2023-06-19T03:16:12;22.60;99.10
569;DHT22;269;48.884;9.192;2023-06-19T03:18:40;22.60;99.10
569;DHT22;269;48.884;9.192;2023-06-19T03:21:08;22.70;99.20
569;DHT22;269;48.884;9.192;2023-06-19T03:23:35;22.70;99.30
569;DHT22;269;48.884;9.192;2023-06-19T03:26:03;22.70;99.20
569;DHT22;269;48.884;9.192;2023-06-19T03:28:29;22.80;99.30
569;DHT22;269;48.884;9.192;2023-06-19T03:30:57;22.80;99.20
569;DHT22;269;48.884;9.192;2023-06-19T03:33:24;22.80;99.20
569;DHT22;269;48.884;9.192;2023-06-19T03:35:51;22.90;99.20
569;DHT22;269;48.884;9.192;2023-06-19T03:38:19;22.80;99.10
569;DHT22;269;48.884;9.192;2023-06-19T03:40:46;22.90;99.00
569;DHT22;269;48.884;9.192;2023-06-19T03:43:13;22.90;99.00
569;DHT22;269;48.884;9.192;2023-06-19T03:45:41;22.90;98.80
569;DHT22;269;48.884;9.192;2023-06-19T03:48:08;23.00;99.00
569;DHT22;269;48.884;9.192;2023-06-19T03:50:35;23.00;98.80
569;DHT22;269;48.884;9.192;2023-06-19T03:53:02;23.00;98.70
569;DHT22;269;48.884;9.192;2023-06-19T03:55:31;23.10;98.90
569;DHT22;269;48.884;9.192;2023-06-19T03:57:58;23.10;98.80
569;DHT22;269;48.884;9.192;2023-06-19T04:00:25;23.10;98.60
569;DHT22;269;48.884;9.192;2023-06-19T04:02:52;23.10;98.40
569;DHT22;269;48.884;9.192;2023-06-19T04:05:19;23.10;98.60
569;DHT22;269;48.884;9.192;2023-06-19T04:07:47;23.10;98.60
569;DHT22;269;48.884;9.192;2023-06-19T04:10:14;23.00;98.60
569;DHT22;269;48.884;9.192;2023-06-19T04:12:42;23.00;98.80
569;DHT22;269;48.884;9.192;2023-06-19T04:15:11;23.00;99.10
569;DHT22;269;48.884;9.192;2023-06-19T04:17:38;23.00;99.20
569;DHT22;269;48.884;9.192;2023-06-19T04:20:06;22.90;99.20
569;DHT22;269;48.884;9.192;2023-06-19T04:22:37;22.90;99.30
569;DHT22;269;48.884;9.192;2023-06-19T04:25:05;22.80;99.80
569;DHT22;269;48.884;9.192;2023-06-19T04:27:32;22.70;99.90
569;DHT22;269;48.884;9.192;2023-06-19T04:30:03;22.60;99.90
569;DHT22;269;48.884;9.192;2023-06-19T04:32:32;22.60;99.90
569;DHT22;269;48.884;9.192;2023-06-19T04:35:00;22.50;99.90
569;DHT22;269;48.884;9.192;2023-06-19T04:37:27;22.40;99.90
569;DHT22;269;48.884;9.192;2023-06-19T04:39:54;22.40;99.90
569;DHT22;269;48.884;9.192;2023-06-19T04:42:22;22.30;99.90
569;DHT22;269;48.884;9.192;2023-06-19T04:44:49;22.20;99.90
569;DHT22;269;48.884;9.192;2023-06-19T04:47:19;22.20;99.90
569;DHT22;269;48.884;9.192;2023-06-19T04:49:47;22.10;99.90
569;DHT22;269;48.884;9.192;2023-06-19T04:52:14;22.00;99.90
569;DHT22;269;48.884;9.192;2023-06-19T04:54:41;22.00;99.90
569;DHT22;269;48.884;9.192;2023-06-19T04:57:08;22.00;99.90
569;DHT22;269;48.884;9.192;2023-06-19T04:59:36;22.10;99.90
569;DHT22;269;48.884;9.192;2023-06-19T05:02:03;22.20;99.90
569;DHT22;269;48.884;9.192;2023-06-19T05:04:32;22.20;99.90
569;DHT22;269;48.884;9.192;2023-06-19T05:06:59;22.20;99.90
569;DHT22;269;48.884;9.192;2023-06-19T05:09:26;22.20;99.90
569;DHT22;269;48.884;9.192;2023-06-19T05:11:53;22.30;99.90
569;DHT22;269;48.884;9.192;2023-06-19T05:14:20;22.40;99.90
569;DHT22;269;48.884;9.192;2023-06-19T05:16:47;22.50;99.90
569;DHT22;269;48.884;9.192;2023-06-19T05:19:15;22.60;99.90
569;DHT22;269;48.884;9.192;2023-06-19T05:21:43;22.70;99.90
569;DHT22;269;48.884;9.192;2023-06-19T05:24:10;22.70;99.90
569;DHT22;269;48.884;9.192;2023-06-19T05:26:37;22.80;99.90
569;DHT22;269;48.884;9.192;2023-06-19T05:29:05;22.80;99.90
569;DHT22;269;48.884;9.192;2023-06-19T05:31:34;22.90;99.90
569;DHT22;269;48.884;9.192;2023-06-19T05:34:01;22.90;99.90
569;DHT22;269;48.884;9.192;2023-06-19T05:36:29;22.90;99.90
569;DHT22;269;48.884;9.192;2023-06-19T05:38:57;23.00;99.90
569;DHT22;269;48.884;9.192;2023-06-19T05:41:24;23.00;99.90
569;DHT22;269;48.884;9.192;2023-06-19T05:43:51;23.00;99.90
569;DHT22;269;48.884;9.192;2023-06-19T05:46:19;23.00;99.90
569;DHT22;269;48.884;9.192;2023-06-19T05:48:46;23.00;99.90
569;DHT22;269;48.884;9.192;2023-06-19T05:51:14;23.00;99.90
569;DHT22;269;48.884;9.192;2023-06-19T05:53:41;23.10;99.90
569;DHT22;269;48.884;9.192;2023-06-19T05:56:09;23.10;99.90
569;DHT22;269;48.884;9.192;2023-06-19T05:58:36;23.10;99.90
569;DHT22;269;48.884;9.192;2023-06-19T06:01:04;23.10;99.90
569;DHT22;269;48.884;9.192;2023-06-19T06:03:33;23.10;99.90
569;DHT22;269;48.884;9.192;2023-06-19T06:06:00;23.20;99.90
569;DHT22;269;48.884;9.192;2023-06-19T06:08:29;23.20;99.90
569;DHT22;269;48.884;9.192;2023-06-19T06:10:56;23.10;99.90
569;DHT22;269;48.884;9.192;2023-06-19T06:13:25;23.00;99.90
569;DHT22;269;48.884;9.192;2023-06-19T06:15:52;23.10;99.90
569;DHT22;269;48.884;9.192;2023-06-19T06:18:19;23.10;99.90
569;DHT22;269;48.884;9.192;2023-06-19T06:20:46;23.30;99.90
569;DHT22;269;48.884;9.192;2023-06-19T06:23:13;23.40;99.90
569;DHT22;269;48.884;9.192;2023-06-19T06:25:41;23.40;99.90
569;DHT22;269;48.884;9.192;2023-06-19T06:28:08;23.50;99.90
569;DHT22;269;48.884;9.192;2023-06-19T06:30:36;23.50;99.90
569;DHT22;269;48.884;9.192;2023-06-19T06:33:04;23.50;99.90
569;DHT22;269;48.884;9.192;2023-06-19T06:35:31;23.50;99.90
569;DHT22;269;48.884;9.192;2023-06-19T06:38:00;23.60;99.90
569;DHT22;269;48.884;9.192;2023-06-19T06:40:27;23.70;99.90
569;DHT22;269;48.884;9.192;2023-06-19T06:42:54;23.70;99.90
569;DHT22;269;48.884;9.192;2023-06-19T06:45:21;23.70;99.90
569;DHT22;269;48.884;9.192;2023-06-19T06:47:51;23.60;99.90
569;DHT22;269;48.884;9.192;2023-06-19T06:50:18;23.70;99.90
569;DHT22;269;48.884;9.192;2023-06-19T06:52:45;23.80;99.90
569;DHT22;269;48.884;9.192;2023-06-19T06:55:12;23.90;99.90
569;DHT22;269;48.884;9.192;2023-06-19T06:57:39;24.10;99.90
569;DHT22;269;48.884;9.192;2023-06-19T07:00:08;24.30;99.90
569;DHT22;269;48.884;9.192;2023-06-19T07:02:38;24.50;99.90
569;DHT22;269;48.884;9.192;2023-06-19T07:05:09;24.70;99.90
569;DHT22;269;48.884;9.192;2023-06-19T07:07:36;24.80;99.90
569;DHT22;269;48.884;9.192;2023-06-19T07:10:06;25.00;99.90
569;DHT22;269;48.884;9.192;2023-06-19T07:12:33;25.10;99.90
569;DHT22;269;48.884;9.192;2023-06-19T07:15:00;25.30;99.90
569;DHT22;269;48.884;9.192;2023-06-19T07:17:27;25.40;99.90
569;DHT22;269;48.884;9.192;2023-06-19T07:19:54;25.60;99.90
569;DHT22;269;48.884;9.192;2023-06-19T07:22:23;25.60;99.90
569;DHT22;269;48.884;9.192;2023-06-19T07:24:50;25.60;99.90
569;DHT22;269;48.884;9.192;2023-06-19T07:27:17;25.40;99.90
569;DHT22;269;48.884;9.192;2023-06-19T07:29:44;25.40;99.90
569;DHT22;269;48.884;9.192;2023-06-19T07:32:11;25.30;99.90
569;DHT22;269;48.884;9.192;2023-06-19T07:34:38;25.20;99.90
569;DHT22;269;48.884;9.192;2023-06-19T07:37:06;25.20;99.90
569;DHT22;269;48.884;9.192;2023-06-19T07:39:34;25.20;99.90
569;DHT22;269;48.884;9.192;2023-06-19T07:42:01;25.40;99.90
569;DHT22;269;48.884;9.192;2023-06-19T07:44:28;25.60;99.90
569;DHT22;269;48.884;9.192;2023-06-19T07:46:55;25.60;99.40
569;DHT22;269;48.884;9.192;2023-06-19T07:49:22;25.70;99.40
569;DHT22;269;48.884;9.192;2023-06-19T07:51:49;25.80;99.60
569;DHT22;269;48.884;9.192;2023-06-19T07:54:16;25.80;99.90
569;DHT22;269;48.884;9.192;2023-06-19T07:56:45;25.90;99.50
569;DHT22;269;48.884;9.192;2023-06-19T07:59:12;26.00;99.20
569;DHT22;269;48.884;9.192;2023-06-19T08:01:40;26.10;99.10
569;DHT22;269;48.884;9.192;2023-06-19T08:04:07;26.30;99.10
569;DHT22;269;48.884;9.192;2023-06-19T08:06:34;26.40;99.00
569;DHT22;269;48.884;9.192;2023-06-19T08:09:02;26.50;99.80
569;DHT22;269;48.884;9.192;2023-06-19T08:11:29;26.80;98.20
569;DHT22;269;48.884;9.192;2023-06-19T08:13:57;27.10;98.00
569;DHT22;269;48.884;9.192;2023-06-19T08:16:26;27.00;97.50
569;DHT22;269;48.884;9.192;2023-06-19T08:18:53;26.90;97.50
569;DHT22;269;48.884;9.192;2023-06-19T08:21:20;26.80;97.90
569;DHT22;269;48.884;9.192;2023-06-19T08:23:47;26.60;98.30
569;DHT22;269;48.884;9.192;2023-06-19T08:26:14;26.40;98.20
569;DHT22;269;48.884;9.192;2023-06-19T08:28:41;26.40;98.40
569;DHT22;269;48.884;9.192;2023-06-19T08:31:10;26.60;98.00
569;DHT22;269;48.884;9.192;2023-06-19T08:33:37;26.80;97.60
569;DHT22;269;48.884;9.192;2023-06-19T08:36:04;27.10;97.70
569;DHT22;269;48.884;9.192;2023-06-19T08:38:31;27.30;97.40
569;DHT22;269;48.884;9.192;2023-06-19T08:40:58;27.50;97.00
569;DHT22;269;48.884;9.192;2023-06-19T08:43:26;27.80;95.50
569;DHT22;269;48.884;9.192;2023-06-19T08:46:04;28.00;95.00
569;DHT22;269;48.884;9.192;2023-06-19T08:48:35;28.20;95.50
569;DHT22;269;48.884;9.192;2023-06-19T08:51:03;28.60;94.70
569;DHT22;269;48.884;9.192;2023-06-19T08:53:33;29.00;93.30
569;DHT22;269;48.884;9.192;2023-06-19T08:56:02;29.10;92.80
569;DHT22;269;48.884;9.192;2023-06-19T08:58:29;29.00;92.30
569;DHT22;269;48.884;9.192;2023-06-19T09:00:57;29.10;92.50
569;DHT22;269;48.884;9.192;2023-06-19T09:03:25;29.30;91.80
569;DHT22;269;48.884;9.192;2023-06-19T09:05:53;29.50;91.30
569;DHT22;269;48.884;9.192;2023-06-19T09:08:21;29.50;91.50
569;DHT22;269;48.884;9.192;2023-06-19T09:10:59;29.40;90.90
569;DHT22;269;48.884;9.192;2023-06-19T09:13:26;29.70;90.20
569;DHT22;269;48.884;9.192;2023-06-19T09:15:59;30.10;90.30
569;DHT22;269;48.884;9.192;2023-06-19T09:18:29;30.50;88.00
569;DHT22;269;48.884;9.192;2023-06-19T09:20:59;30.90;86.70
569;DHT22;269;48.884;9.192;2023-06-19T09:23:26;31.20;84.70
569;DHT22;269;48.884;9.192;2023-06-19T09:25:54;31.60;84.10
569;DHT22;269;48.884;9.192;2023-06-19T09:28:22;32.00;81.70
569;DHT22;269;48.884;9.192;2023-06-19T09:30:54;32.20;79.90
569;DHT22;269;48.884;9.192;2023-06-19T09:33:23;32.00;79.40
569;DHT22;269;48.884;9.192;2023-06-19T09:35:50;31.90;80.80
569;DHT22;269;48.884;9.192;2023-06-19T09:38:21;32.30;80.60
569;DHT22;269;48.884;9.192;2023-06-19T09:40:48;32.70;79.10
569;DHT22;269;48.884;9.192;2023-06-19T09:43:18;33.20;77.30
569;DHT22;269;48.884;9.192;2023-06-19T09:45:48;33.60;77.20
569;DHT22;269;48.884;9.192;2023-06-19T09:48:19;33.90;75.80
569;DHT22;269;48.884;9.192;2023-06-19T09:50:49;34.20;75.00
569;DHT22;269;48.884;9.192;2023-06-19T09:53:19;34.30;74.40
569;DHT22;269;48.884;9.192;2023-06-19T09:55:48;34.50;73.60
569;DHT22;269;48.884;9.192;2023-06-19T09:58:16;34.70;73.20
569;DHT22;269;48.884;9.192;2023-06-19T10:00:44;34.70;72.30
569;DHT22;269;48.884;9.192;2023-06-19T10:03:13;34.90;71.00
569;DHT22;269;48.884;9.192;2023-06-19T10:05:40;34.40;71.80
569;DHT22;269;48.884;9.192;2023-06-19T10:08:07;34.20;72.40
569;DHT22;269;48.884;9.192;2023-06-19T10:10:35;34.10;71.70
569;DHT22;269;48.884;9.192;2023-06-19T10:13:12;34.30;72.00
569;DHT22;269;48.884;9.192;2023-06-19T10:15:41;34.50;72.00
569;DHT22;269;48.884;9.192;2023-06-19T10:18:13;34.20;71.00
569;DHT22;269;48.884;9.192;2023-06-19T10:20:42;34.00;71.90
569;DHT22;269;48.884;9.192;2023-06-19T10:23:12;33.80;72.20
569;DHT22;269;48.884;9.192;2023-06-19T10:25:41;33.80;72.30
569;DHT22;269;48.884;9.192;2023-06-19T10:28:19;33.90;72.10
569;DHT22;269;48.884;9.192;2023-06-19T10:30:52;34.10;71.80
569;DHT22;269;48.884;9.192;2023-06-19T10:33:20;34.40;71.50
569;DHT22;269;48.884;9.192;2023-06-19T10:35:47;34.80;70.30
569;DHT22;269;48.884;9.192;2023-06-19T10:38:15;35.00;69.90
569;DHT22;269;48.884;9.192;2023-06-19T10:40:44;35.20;69.30
569;DHT22;269;48.884;9.192;2023-06-19T10:43:12;35.30;68.50
569;DHT22;269;48.884;9.192;2023-06-19T10:45:39;35.50;68.80
569;DHT22;269;48.884;9.192;2023-06-19T10:48:07;35.80;68.60
569;DHT22;269;48.884;9.192;2023-06-19T10:50:34;36.00;66.60
569;DHT22;269;48.884;9.192;2023-06-19T10:53:02;36.00;65.50
569;DHT22;269;48.884;9.192;2023-06-19T10:55:29;35.60;66.80
569;DHT22;269;48.884;9.192;2023-06-19T10:57:57;35.40;66.50
569;DHT22;269;48.884;9.192;2023-06-19T11:00:26;35.30;66.40
569;DHT22;269;48.884;9.192;2023-06-19T11:02:54;35.10;66.70
569;DHT22;269;48.884;9.192;2023-06-19T11:05:22;35.00;67.20
569;DHT22;269;48.884;9.192;2023-06-19T11:07:54;34.90;66.80
569;DHT22;269;48.884;9.192;2023-06-19T11:10:22;34.90;67.70
569;DHT22;269;48.884;9.192;2023-06-19T11:12:50;34.90;67.80
569;DHT22;269;48.884;9.192;2023-06-19T11:15:18;34.70;67.60
569;DHT22;269;48.884;9.192;2023-06-19T11:17:47;34.50;68.10
569;DHT22;269;48.884;9.192;2023-06-19T11:20:14;34.30;68.20
569;DHT22;269;48.884;9.192;2023-06-19T11:22:41;34.20;68.20
569;DHT22;269;48.884;9.192;2023-06-19T11:25:09;34.00;68.20
569;DHT22;269;48.884;9.192;2023-06-19T11:27:38;33.60;68.20
569;DHT22;269;48.884;9.192;2023-06-19T11:30:06;33.30;70.50
569;DHT22;269;48.884;9.192;2023-06-19T11:32:38;33.60;70.60
569;DHT22;269;48.884;9.192;2023-06-19T11:35:10;34.00;69.20
569;DHT22;269;48.884;9.192;2023-06-19T11:37:40;34.40;68.20
569;DHT22;269;48.884;9.192;2023-06-19T11:40:08;34.40;68.00
569;DHT22;269;48.884;9.192;2023-06-19T11:42:46;34.70;68.30
569;DHT22;269;48.884;9.192;2023-06-19T11:45:13;35.10;66.60
569;DHT22;269;48.884;9.192;2023-06-19T11:47:43;35.40;64.80
569;DHT22;269;48.884;9.192;2023-06-19T11:50:11;35.30;65.80
569;DHT22;269;48.884;9.192;2023-06-19T11:52:38;35.60;65.50
569;DHT22;269;48.884;9.192;2023-06-19T11:55:06;35.90;64.70
569;DHT22;269;48.884;9.192;2023-06-19T11:57:33;35.50;63.10
569;DHT22;269;48.884;9.192;2023-06-19T12:00:00;34.70;65.00
569;DHT22;269;48.884;9.192;2023-06-19T12:02:30;33.90;66.60
569;DHT22;269;48.884;9.192;2023-06-19T12:04:58;33.60;66.80
569;DHT22;269;48.884;9.192;2023-06-19T12:07:25;33.50;67.80
569;DHT22;269;48.884;9.192;2023-06-19T12:09:52;33.60;68.50
569;DHT22;269;48.884;9.192;2023-06-19T12:12:19;33.90;67.70
569;DHT22;269;48.884;9.192;2023-06-19T12:14:46;34.20;68.10
569;DHT22;269;48.884;9.192;2023-06-19T12:17:13;34.10;66.50
569;DHT22;269;48.884;9.192;2023-06-19T12:19:40;33.90;67.20
569;DHT22;269;48.884;9.192;2023-06-19T12:22:09;33.20;68.00
569;DHT22;269;48.884;9.192;2023-06-19T12:24:36;33.10;69.10
569;DHT22;269;48.884;9.192;2023-06-19T12:27:03;33.30;69.70
569;DHT22;269;48.884;9.192;2023-06-19T12:29:31;33.60;68.50
569;DHT22;269;48.884;9.192;2023-06-19T12:32:01;33.70;67.40
569;DHT22;269;48.884;9.192;2023-06-19T12:34:29;33.80;67.10
569;DHT22;269;48.884;9.192;2023-06-19T12:36:56;33.60;67.50
569;DHT22;269;48.884;9.192;2023-06-19T12:39:25;33.50;68.70
569;DHT22;269;48.884;9.192;2023-06-19T12:41:53;33.60;68.60
569;DHT22;269;48.884;9.192;2023-06-19T12:44:21;33.90;68.50
569;DHT22;269;48.884;9.192;2023-06-19T12:46:48;34.30;66.70
569;DHT22;269;48.884;9.192;2023-06-19T12:49:15;34.80;65.30
569;DHT22;269;48.884;9.192;2023-06-19T12:51:42;35.30;64.50
569;DHT22;269;48.884;9.192;2023-06-19T12:54:10;35.60;63.80
569;DHT22;269;48.884;9.192;2023-06-19T12:56:38;35.90;63.60
569;DHT22;269;48.884;9.192;2023-06-19T12:59:05;36.50;63.20
569;DHT22;269;48.884;9.192;2023-06-19T13:01:32;37.20;61.70
569;DHT22;269;48.884;9.192;2023-06-19T13:03:59;37.80;60.20
569;DHT22;269;48.884;9.192;2023-06-19T13:06:26;38.00;59.60
569;DHT22;269;48.884;9.192;2023-06-19T13:08:53;38.40;59.20
569;DHT22;269;48.884;9.192;2023-06-19T13:11:20;38.60;57.00
569;DHT22;269;48.884;9.192;2023-06-19T13:13:49;38.10;57.20
569;DHT22;269;48.884;9.192;2023-06-19T13:16:16;37.70;58.40
569;DHT22;269;48.884;9.192;2023-06-19T13:18:44;38.20;58.70
569;DHT22;269;48.884;9.192;2023-06-19T13:21:11;38.90;57.50
569;DHT22;269;48.884;9.192;2023-06-19T13:23:39;39.70;56.20
569;DHT22;269;48.884;9.192;2023-06-19T13:26:07;40.50;55.20
569;DHT22;269;48.884;9.192;2023-06-19T13:28:34;41.10;54.10
569;DHT22;269;48.884;9.192;2023-06-19T13:31:02;41.80;53.10
569;DHT22;269;48.884;9.192;2023-06-19T13:33:29;42.30;52.20
569;DHT22;269;48.884;9.192;2023-06-19T13:35:56;42.50;52.00
569;DHT22;269;48.884;9.192;2023-06-19T13:38:24;43.00;51.20
569;DHT22;269;48.884;9.192;2023-06-19T13:40:50;43.40;50.50
569;DHT22;269;48.884;9.192;2023-06-19T13:43:17;43.10;49.90
569;DHT22;269;48.884;9.192;2023-06-19T13:45:45;41.50;51.00
569;DHT22;269;48.884;9.192;2023-06-19T13:48:14;40.70;52.40
569;DHT22;269;48.884;9.192;2023-06-19T13:50:41;40.70;52.20
569;DHT22;269;48.884;9.192;2023-06-19T13:53:08;40.50;52.10
569;DHT22;269;48.884;9.192;2023-06-19T13:55:35;39.70;52.50
569;DHT22;269;48.884;9.192;2023-06-19T13:58:02;39.20;53.40
569;DHT22;269;48.884;9.192;2023-06-19T14:00:29;39.00;53.70
569;DHT22;269;48.884;9.192;2023-06-19T14:02:57;39.10;54.10
569;DHT22;269;48.884;9.192;2023-06-19T14:05:25;39.40;53.70
569;DHT22;269;48.884;9.192;2023-06-19T14:07:54;39.50;53.20
569;DHT22;269;48.884;9.192;2023-06-19T14:10:21;39.40;53.10
569;DHT22;269;48.884;9.192;2023-06-19T14:12:48;39.10;53.00
569;DHT22;269;48.884;9.192;2023-06-19T14:15:15;38.90;53.20
569;DHT22;269;48.884;9.192;2023-06-19T14:17:42;38.70;53.80
569;DHT22;269;48.884;9.192;2023-06-19T14:20:11;38.80;54.00
569;DHT22;269;48.884;9.192;2023-06-19T14:22:39;38.80;53.20
569;DHT22;269;48.884;9.192;2023-06-19T14:25:07;38.90;53.60
569;DHT22;269;48.884;9.192;2023-06-19T14:27:34;39.10;53.30
569;DHT22;269;48.884;9.192;2023-06-19T14:30:01;39.40;53.30
569;DHT22;269;48.884;9.192;2023-06-19T14:32:30;39.80;52.70
569;DHT22;269;48.884;9.192;2023-06-19T14:34:57;40.30;52.30
569;DHT22;269;48.884;9.192;2023-06-19T14:37:24;40.90;51.00
569;DHT22;269;48.884;9.192;2023-06-19T14:39:53;41.20;50.40
569;DHT22;269;48.884;9.192;2023-06-19T14:42:20;41.00;50.50
569;DHT22;269;48.884;9.192;2023-06-19T14:44:48;41.00;50.30
569;DHT22;269;48.884;9.192;2023-06-19T14:47:15;41.00;50.60
569;DHT22;269;48.884;9.192;2023-06-19T14:49:42;40.90;50.90
569;DHT22;269;48.884;9.192;2023-06-19T14:52:09;40.70;50.90
569;DHT22;269;48.884;9.192;2023-06-19T14:54:36;40.30;51.30
569;DHT22;269;48.884;9.192;2023-06-19T14:57:05;40.00;51.50
569;DHT22;269;48.884;9.192;2023-06-19T14:59:33;39.70;52.10
569;DHT22;269;48.884;9.192;2023-06-19T15:02:00;39.90;52.00
569;DHT22;269;48.884;9.192;2023-06-19T15:04:28;40.20;51.70
569;DHT22;269;48.884;9.192;2023-06-19T15:06:55;40.10;51.40
569;DHT22;269;48.884;9.192;2023-06-19T15:09:22;39.80;51.80
569;DHT22;269;48.884;9.192;2023-06-19T15:11:49;39.60;52.10
569;DHT22;269;48.884;9.192;2023-06-19T15:14:18;39.40;51.90
569;DHT22;269;48.884;9.192;2023-06-19T15:16:45;39.10;52.30
569;DHT22;269;48.884;9.192;2023-06-19T15:19:12;38.60;52.70
569;DHT22;269;48.884;9.192;2023-06-19T15:21:41;38.30;53.10
569;DHT22;269;48.884;9.192;2023-06-19T15:24:08;38.10;53.30
569;DHT22;269;48.884;9.192;2023-06-19T15:26:35;37.90;53.50
569;DHT22;269;48.884;9.192;2023-06-19T15:29:03;37.60;53.50
569;DHT22;269;48.884;9.192;2023-06-19T15:31:31;37.30;53.90
569;DHT22;269;48.884;9.192;2023-06-19T15:33:59;36.90;54.20
569;DHT22;269;48.884;9.192;2023-06-19T15:36:26;36.70;54.60
569;DHT22;269;48.884;9.192;2023-06-19T15:38:53;36.70;54.80
569;DHT22;269;48.884;9.192;2023-06-19T15:41:20;36.70;54.60
569;DHT22;269;48.884;9.192;2023-06-19T15:43:47;36.40;54.90
569;DHT22;269;48.884;9.192;2023-06-19T15:46:14;36.10;55.60
569;DHT22;269;48.884;9.192;2023-06-19T15:48:43;35.60;56.00
569;DHT22;269;48.884;9.192;2023-06-19T15:51:10;35.30;56.60
569;DHT22;269;48.884;9.192;2023-06-19T15:53:38;34.90;58.00
569;DHT22;269;48.884;9.192;2023-06-19T15:56:05;34.40;58.80
569;DHT22;269;48.884;9.192;2023-06-19T15:58:32;34.30;59.70
569;DHT22;269;48.884;9.192;2023-06-19T16:00:59;33.80;59.90
569;DHT22;269;48.884;9.192;2023-06-19T16:03:26;33.60;60.60
569;DHT22;269;48.884;9.192;2023-06-19T16:05:57;33.40;61.40
569;DHT22;269;48.884;9.192;2023-06-19T16:08:24;33.10;62.00
569;DHT22;269;48.884;9.192;2023-06-19T16:10:52;32.90;62.80
569;DHT22;269;48.884;9.192;2023-06-19T16:13:19;32.80;63.10
569;DHT22;269;48.884;9.192;2023-06-19T16:15:46;32.60;63.80
569;DHT22;269;48.884;9.192;2023-06-19T16:18:13;32.40;64.90
569;DHT22;269;48.884;9.192;2023-06-19T16:20:40;32.10;65.70
569;DHT22;269;48.884;9.192;2023-06-19T16:23:08;31.80;66.50
569;DHT22;269;48.884;9.192;2023-06-19T16:25:35;31.60;67.70
569;DHT22;269;48.884;9.192;2023-06-19T16:28:03;31.40;68.00
569;DHT22;269;48.884;9.192;2023-06-19T16:30:30;31.30;68.40
569;DHT22;269;48.884;9.192;2023-06-19T16:32:57;31.20;68.70
569;DHT22;269;48.884;9.192;2023-06-19T16:35:24;31.10;69.10
569;DHT22;269;48.884;9.192;2023-06-19T16:37:52;31.10;69.30